Mound City, Kansas
Current Conditions -  °F | °C
As of 10:55 AM on Friday 31 Oct 2014 (Local Time) from KPTS Reporting Station
Clear Clear  
Wind Chill: 37°   Ceiling: Unl
Heat Index: 44°   Visibility: 10mi
Dew Point: 31°   Wind: 14mph
Humidity: 60%   Direction: 10°N
Pressure: 30.42"   Gusts: 21mph
Location:  38.14°N, 94.81°W
Report Text: KPTS 311555Z AUTO 01012G18KT 10SM CLR 06/M01 A3042 RMK AO2 T00641008
Loading
Personal Weather Stations






























Interactive Weather Map
Tropical Storm Tracking
New forecast layout! Learn more

10-Day Weather Forecast

Advertisements
Track Severe Weather on mobile